Time;durP1;ratioP1;P1;durP2;ratioP2;P2;SDS_P1;SDS_P2;PMS_P1;PMS_P2;Temp;Humidity;BMP_temperature;BMP_pressure;BME280_temperature;BME280_humidity;BME280_pressure;Samples;Min_cycle;Max_cycle;Signal;HPM_P1;HPM_P2
2023/08/31 00:00:34;;;;;;;;;11.50;10.75;;;;;17.41;60.35;98919.88;5074695;28;45433;-69
2023/08/31 00:03:00;;;;;;;;;11.00;10.50;;;;;17.41;60.84;98925.19;5075444;28;45378;-69
2023/08/31 00:05:28;;;;;;;;;13.00;12.75;;;;;17.42;61.12;98926.91;5074774;28;45450;-69
2023/08/31 00:07:54;;;;;;;;;11.25;11.00;;;;;17.43;61.12;98925.06;5073944;28;45616;-69
2023/08/31 00:10:19;;;;;;;;;5.00;5.00;;;;;17.43;60.51;98914.41;5075245;28;45364;-69
2023/08/31 00:12:45;;;;;;;;;14.25;9.25;;;;;17.42;60.43;98910.06;5075390;28;45365;-69
2023/08/31 00:15:10;;;;;;;;;11.75;9.50;;;;;17.41;60.19;98917.22;5074576;28;45502;-69
2023/08/31 00:17:37;;;;;;;;;15.00;13.00;;;;;17.40;60.57;98925.31;5074927;28;46308;-69
2023/08/31 00:20:06;;;;;;;;;9.60;8.80;;;;;17.34;60.10;98931.91;5075283;28;45388;-69
2023/08/31 00:22:31;;;;;;;;;10.50;10.00;;;;;17.33;60.43;98935.53;5075410;28;45400;-69
2023/08/31 00:24:57;;;;;;;;;7.50;6.75;;;;;17.31;60.24;98931.28;5075427;28;45448;-69
2023/08/31 00:27:22;;;;;;;;;10.50;8.75;;;;;17.25;60.35;98935.25;5075426;28;45582;-69
2023/08/31 00:29:50;;;;;;;;;15.75;11.25;;;;;17.19;60.44;98934.81;5074598;28;45459;-69
2023/08/31 00:32:22;;;;;;;;;5.00;4.00;;;;;17.13;60.41;98937.88;5075265;28;45487;-69
2023/08/31 00:34:48;;;;;;;;;14.75;13.75;;;;;17.09;61.05;98938.09;5075121;28;45471;-69
2023/08/31 00:37:13;;;;;;;;;13.00;12.25;;;;;17.06;61.10;98933.00;5074818;28;45660;-69
2023/08/31 00:39:39;;;;;;;;;12.00;10.75;;;;;17.05;62.18;98928.63;5074735;28;45327;-68
2023/08/31 00:42:04;;;;;;;;;16.75;14.25;;;;;17.03;62.20;98932.34;5074836;28;45379;-69
2023/08/31 00:44:30;;;;;;;;;13.75;12.75;;;;;17.00;62.19;98943.22;5074616;28;45435;-69
2023/08/31 00:46:55;;;;;;;;;28.50;20.75;;;;;16.97;63.14;98940.75;5074916;28;45572;-69
2023/08/31 00:49:21;;;;;;;;;21.00;19.50;;;;;16.96;63.46;98949.72;5074630;28;45394;-69
2023/08/31 00:51:49;;;;;;;;;26.75;21.50;;;;;16.92;63.61;98951.75;5074744;28;45419;-69
2023/08/31 00:54:17;;;;;;;;;15.75;14.50;;;;;16.91;63.29;98946.53;5074374;28;45442;-69
2023/08/31 00:56:43;;;;;;;;;19.00;16.75;;;;;16.90;62.80;98944.81;5073149;28;48379;-69
2023/08/31 00:59:08;;;;;;;;;17.50;16.25;;;;;16.90;63.31;98950.16;5074321;28;45526;-69
2023/08/31 01:01:43;;;;;;;;;13.25;13.25;;;;;16.90;63.27;98945.69;5074992;28;45391;-69
2023/08/31 01:04:22;;;;;;;;;12.00;12.00;;;;;16.90;63.62;98955.47;5074368;28;45450;-68
2023/08/31 01:06:55;;;;;;;;;11.50;10.25;;;;;16.89;63.61;98949.28;5073369;28;45650;-69
2023/08/31 01:09:23;;;;;;;;;13.20;9.60;;;;;16.87;63.94;98951.22;5074536;28;45412;-69
2023/08/31 01:12:29;;;;;;;;;16.00;12.00;;;;;16.86;64.00;98949.50;5074547;28;45437;-69
2023/08/31 01:14:59;;;;;;;;;6.75;5.75;;;;;16.85;64.21;98954.94;5020984;28;45486;-69
2023/08/31 01:17:28;;;;;;;;;9.50;8.50;;;;;16.85;64.05;98949.59;5074147;27;45489;-69
2023/08/31 01:19:55;;;;;;;;;11.20;10.60;;;;;16.85;64.50;98954.94;5074433;28;45498;-69
2023/08/31 01:23:03;;;;;;;;;9.25;8.00;;;;;16.83;64.97;98949.69;5074490;28;45368;-68
2023/08/31 01:25:30;;;;;;;;;10.00;8.75;;;;;16.82;64.69;98948.00;5011998;28;45554;-69
2023/08/31 01:27:58;;;;;;;;;10.50;10.25;;;;;16.83;65.49;98952.38;5011649;28;45368;-69
2023/08/31 01:30:23;;;;;;;;;10.00;9.00;;;;;16.83;65.45;98956.84;5043345;28;45630;-69
2023/08/31 01:32:49;;;;;;;;;12.00;12.00;;;;;16.84;65.47;98958.53;5074493;28;45356;-68
2023/08/31 01:35:17;;;;;;;;;11.00;9.50;;;;;16.84;65.49;98958.53;5073670;28;45408;-69
2023/08/31 01:38:14;;;;;;;;;9.25;8.25;;;;;16.83;65.58;98962.16;5074086;28;46261;-68
2023/08/31 01:41:03;;;;;;;;;10.40;9.40;;;;;16.82;65.83;98961.31;5059900;28;45449;-69
2023/08/31 01:43:31;;;;;;;;;9.00;8.50;;;;;16.80;65.89;98959.72;5073617;28;45474;-68
2023/08/31 01:45:58;;;;;;;;;8.50;8.50;;;;;16.76;66.37;98958.22;5074216;28;45613;-69
2023/08/31 01:48:23;;;;;;;;;8.75;7.75;;;;;16.76;66.34;98963.56;5073842;28;46668;-69
2023/08/31 01:50:49;;;;;;;;;10.00;8.00;;;;;16.74;66.23;98966.31;5074049;28;45459;-68
2023/08/31 01:53:14;;;;;;;;;10.25;9.00;;;;;16.72;66.06;98961.09;5073613;28;45480;-68
2023/08/31 01:55:40;;;;;;;;;8.00;8.00;;;;;16.71;66.42;98958.53;5073548;28;45364;-68
2023/08/31 01:58:05;;;;;;;;;7.25;7.00;;;;;16.69;66.68;98955.97;5073633;28;46497;-69
2023/08/31 02:00:34;;;;;;;;;8.75;8.25;;;;;16.70;66.74;98956.81;5073573;28;45396;-68
2023/08/31 02:03:00;;;;;;;;;9.00;9.00;;;;;16.72;66.66;98958.44;5074047;28;45443;-68
2023/08/31 02:05:25;;;;;;;;;6.25;6.00;;;;;16.73;66.51;98951.31;5073641;28;45439;-68
2023/08/31 02:07:51;;;;;;;;;6.50;6.50;;;;;16.74;66.81;98945.03;5073655;28;46519;-68
2023/08/31 02:10:16;;;;;;;;;10.00;10.00;;;;;16.76;66.51;98950.25;5072336;28;45498;-68
2023/08/31 02:12:41;;;;;;;;;7.50;7.50;;;;;16.75;66.78;98946.72;5074100;28;45396;-68
2023/08/31 02:15:07;;;;;;;;;10.75;9.25;;;;;16.73;66.81;98948.63;5073116;28;45529;-68
2023/08/31 02:17:36;;;;;;;;;13.50;9.25;;;;;16.73;66.31;98951.31;5073961;28;45595;-68
2023/08/31 02:20:04;;;;;;;;;8.00;8.00;;;;;16.76;66.42;98950.25;5076567;28;45438;-69
2023/08/31 02:22:35;;;;;;;;;10.75;7.00;;;;;16.76;65.94;98951.06;5076963;28;45431;-69
2023/08/31 02:25:01;;;;;;;;;8.25;6.75;;;;;16.73;66.05;98949.50;5076745;28;45364;-69
2023/08/31 02:27:26;;;;;;;;;8.75;7.00;;;;;16.70;66.72;98948.84;5076723;27;45528;-69
2023/08/31 02:29:52;;;;;;;;;7.75;7.75;;;;;16.64;66.61;98955.41;5076197;28;45415;-68
2023/08/31 02:32:17;;;;;;;;;10.50;10.50;;;;;16.59;66.82;98952.19;5077146;27;45721;-69
2023/08/31 02:34:42;;;;;;;;;7.00;7.00;;;;;16.56;67.78;98948.91;5077041;28;45352;-68
2023/08/31 02:37:08;;;;;;;;;7.00;7.00;;;;;16.53;67.00;98936.63;5076822;28;46140;-69
2023/08/31 02:39:33;;;;;;;;;6.25;6.25;;;;;16.50;67.24;98946.63;5077051;28;45641;-68
2023/08/31 02:41:58;;;;;;;;;9.00;8.25;;;;;16.49;67.69;98952.91;5076889;28;45460;-68
2023/08/31 02:44:24;;;;;;;;;8.75;8.25;;;;;16.48;67.03;98949.38;5076473;28;45450;-69
2023/08/31 02:46:49;;;;;;;;;8.00;8.00;;;;;16.47;67.32;98944.16;5076279;28;45539;-69
2023/08/31 02:49:15;;;;;;;;;10.25;9.00;;;;;16.46;67.55;98942.47;5076720;28;45475;-68
2023/08/31 02:51:40;;;;;;;;;6.50;6.50;;;;;16.46;67.22;98953.09;5076892;28;45450;-68
2023/08/31 02:54:05;;;;;;;;;8.50;8.50;;;;;16.44;67.36;98947.88;5076569;28;45485;-69
2023/08/31 02:56:31;;;;;;;;;10.00;8.25;;;;;16.42;67.36;98945.31;5076431;28;45549;-68
2023/08/31 02:58:56;;;;;;;;;8.75;7.00;;;;;16.42;67.45;98946.31;5076185;28;45368;-68
2023/08/31 03:01:23;;;;;;;;;8.75;8.75;;;;;16.42;67.54;98951.63;5076602;28;45419;-68
2023/08/31 03:03:48;;;;;;;;;8.75;8.50;;;;;16.41;67.14;98950.78;5076344;28;45552;-68
2023/08/31 03:06:15;;;;;;;;;10.25;10.25;;;;;16.38;67.55;98958.97;5076001;28;46180;-68
2023/08/31 03:08:40;;;;;;;;;11.80;10.60;;;;;16.35;67.74;98962.66;5076398;27;45294;-68
2023/08/31 03:11:06;;;;;;;;;8.75;8.50;;;;;16.28;68.55;98968.47;5076620;28;45337;-68
2023/08/31 03:13:33;;;;;;;;;8.00;8.00;;;;;16.18;68.24;98983.34;5076100;28;45388;-69
2023/08/31 03:15:59;;;;;;;;;8.00;6.25;;;;;15.97;67.70;98980.25;5091694;27;47466;-69
2023/08/31 03:18:24;;;;;;;;;9.80;7.00;;;;;15.81;68.65;98979.53;5075799;28;45449;-68
2023/08/31 03:20:50;;;;;;;;;9.00;7.50;;;;;15.70;68.85;98972.25;5076363;28;45399;-68
2023/08/31 03:23:15;;;;;;;;;7.25;7.25;;;;;15.60;69.32;98976.41;5076051;28;45365;-69
2023/08/31 03:25:42;;;;;;;;;9.25;7.75;;;;;15.53;70.02;98983.06;5075594;28;45473;-68
2023/08/31 03:28:08;;;;;;;;;9.80;9.00;;;;;15.47;69.90;98978.97;5076066;28;45457;-68
2023/08/31 03:30:33;;;;;;;;;8.00;8.00;;;;;15.44;70.08;98980.94;5075451;28;45405;-68
2023/08/31 03:32:59;;;;;;;;;7.25;7.25;;;;;15.45;70.11;98980.00;5075932;28;45505;-68
2023/08/31 03:35:27;;;;;;;;;7.50;7.50;;;;;15.44;70.10;98987.13;5075543;28;45641;-68
2023/08/31 03:37:56;;;;;;;;;7.75;6.25;;;;;15.44;70.06;98976.50;5074482;28;45374;-68
2023/08/31 03:40:22;;;;;;;;;8.75;8.75;;;;;15.46;69.95;98979.06;5075875;28;45443;-68
2023/08/31 03:42:48;;;;;;;;;9.75;9.25;;;;;15.46;70.12;98982.56;5075178;27;45427;-68
2023/08/31 03:45:13;;;;;;;;;10.25;8.50;;;;;15.48;70.36;98990.44;5075061;28;45480;-68
2023/08/31 03:47:39;;;;;;;;;8.75;8.50;;;;;15.47;70.08;98986.94;5075782;28;45446;-68
2023/08/31 03:50:05;;;;;;;;;9.25;8.50;;;;;15.50;70.59;98989.41;5075337;28;46389;-69
2023/08/31 03:52:30;;;;;;;;;6.00;6.00;;;;;15.54;70.44;98992.72;5075381;28;45550;-68
2023/08/31 03:54:56;;;;;;;;;7.75;7.50;;;;;15.55;70.40;99000.66;5073943;28;47671;-68
2023/08/31 03:57:21;;;;;;;;;6.50;6.25;;;;;15.58;69.94;99003.13;5074788;28;45347;-68
2023/08/31 03:59:47;;;;;;;;;9.25;9.00;;;;;15.61;70.40;99002.06;5075304;28;45396;-69
2023/08/31 04:02:12;;;;;;;;;8.25;8.25;;;;;15.59;69.72;98999.47;5075776;28;45328;-68
2023/08/31 04:04:37;;;;;;;;;11.25;11.25;;;;;15.60;70.10;99003.84;5074077;28;45929;-68
2023/08/31 04:07:03;;;;;;;;;9.50;9.50;;;;;15.62;69.68;99006.41;5075652;28;45360;-68
2023/08/31 04:09:29;;;;;;;;;7.50;7.50;;;;;15.60;70.17;99008.31;5075358;27;45693;-69
2023/08/31 04:11:55;;;;;;;;;10.50;8.75;;;;;15.58;70.74;99013.75;5075331;27;45442;-68
2023/08/31 04:14:21;;;;;;;;;11.25;10.50;;;;;15.57;70.75;99011.19;5074624;28;45502;-69
2023/08/31 04:16:50;;;;;;;;;9.00;9.00;;;;;15.55;70.59;99018.34;5073598;28;45365;-68
2023/08/31 04:19:15;;;;;;;;;11.25;9.75;;;;;15.53;70.55;99021.09;5075209;27;45383;-68
2023/08/31 04:21:41;;;;;;;;;8.50;8.50;;;;;15.53;70.43;99023.75;5075097;28;45285;-68
2023/08/31 04:24:06;;;;;;;;;9.75;9.75;;;;;15.54;70.79;99027.28;5074755;28;46193;-69
2023/08/31 04:26:32;;;;;;;;;10.75;9.00;;;;;15.53;71.27;99029.09;5073695;28;45333;-69
2023/08/31 04:28:57;;;;;;;;;9.75;9.25;;;;;15.52;70.82;99031.84;5074672;28;45503;-68
2023/08/31 04:31:22;;;;;;;;;9.50;7.00;;;;;15.52;70.81;99042.47;5075007;27;45343;-68
2023/08/31 04:33:48;;;;;;;;;9.00;8.75;;;;;15.50;70.98;99039.91;5074713;27;46042;-68
2023/08/31 04:36:13;;;;;;;;;8.50;7.50;;;;;15.48;71.20;99036.47;5074556;28;45333;-68
2023/08/31 04:38:39;;;;;;;;;5.75;5.75;;;;;15.43;71.45;99048.31;5075133;28;45430;-68
2023/08/31 04:41:04;;;;;;;;;11.50;10.25;;;;;15.31;71.21;99041.97;5073447;28;45401;-70
2023/08/31 04:43:30;;;;;;;;;9.00;8.00;;;;;15.25;71.57;99047.63;5073927;28;46142;-68
2023/08/31 04:45:55;;;;;;;;;8.25;8.00;;;;;15.20;71.63;99053.25;5074656;28;45438;-68
2023/08/31 04:48:21;;;;;;;;;12.50;9.75;;;;;15.16;71.80;99059.66;5074037;28;45455;-68
2023/08/31 04:50:47;;;;;;;;;9.25;9.00;;;;;15.16;72.06;99061.47;5074427;28;45575;-68
2023/08/31 04:53:12;;;;;;;;;11.00;9.00;;;;;15.16;72.11;99067.63;5074475;28;46526;-68
2023/08/31 04:55:38;;;;;;;;;9.00;8.25;;;;;15.19;71.69;99070.13;5074372;28;45450;-69
2023/08/31 04:58:04;;;;;;;;;9.25;9.00;;;;;15.20;72.07;99071.84;5074541;28;45380;-69
2023/08/31 05:00:29;;;;;;;;;10.50;10.25;;;;;15.20;72.27;99070.97;5073700;28;45306;-68
2023/08/31 05:02:55;;;;;;;;;11.25;10.75;;;;;15.19;72.90;99069.25;5073688;28;46254;-68
2023/08/31 05:05:21;;;;;;;;;8.75;8.75;;;;;15.20;72.65;99076.28;5074017;28;45340;-68
2023/08/31 05:07:46;;;;;;;;;12.25;11.75;;;;;15.20;72.69;99081.59;5089487;27;45447;-68
2023/08/31 05:10:11;;;;;;;;;11.50;11.25;;;;;15.22;72.49;99088.53;5074210;28;45457;-68
2023/08/31 05:12:37;;;;;;;;;12.50;10.50;;;;;15.24;72.92;99091.09;5073995;28;45371;-70
2023/08/31 05:15:03;;;;;;;;;10.75;9.75;;;;;15.24;72.85;99097.25;5088683;27;45436;-68
2023/08/31 05:17:30;;;;;;;;;9.50;9.50;;;;;15.25;73.25;99098.94;5073699;28;45400;-70
2023/08/31 05:19:55;;;;;;;;;12.00;11.00;;;;;15.24;72.69;99105.25;5073359;27;45593;-70
2023/08/31 05:22:21;;;;;;;;;12.00;11.00;;;;;15.25;72.57;99098.94;5073704;28;45570;-67
2023/08/31 05:24:46;;;;;;;;;12.75;11.00;;;;;15.24;72.26;99105.25;5073826;28;45500;-68
2023/08/31 05:27:12;;;;;;;;;9.00;9.00;;;;;15.24;71.81;99105.25;5073983;28;45406;-70
2023/08/31 05:29:37;;;;;;;;;9.75;9.25;;;;;15.25;71.41;99106.06;5073027;28;45403;-68
2023/08/31 05:32:03;;;;;;;;;10.00;9.00;;;;;15.26;70.86;99111.28;5071836;28;46314;-69
2023/08/31 05:34:28;;;;;;;;;9.00;9.00;;;;;15.24;71.04;99105.25;5073263;28;45399;-70
2023/08/31 05:36:54;;;;;;;;;10.00;9.50;;;;;15.23;71.19;99110.63;5073437;28;45492;-71
2023/08/31 05:39:19;;;;;;;;;9.00;9.00;;;;;15.22;71.38;99112.44;5073429;28;45496;-69
2023/08/31 05:41:45;;;;;;;;;11.50;9.75;;;;;15.24;71.73;99113.19;5072954;28;45467;-71
2023/08/31 05:44:10;;;;;;;;;10.00;9.50;;;;;15.25;71.73;99108.72;5073018;28;45375;-70
2023/08/31 05:46:36;;;;;;;;;14.00;12.00;;;;;15.28;71.38;99116.50;5073190;28;45392;-70
2023/08/31 05:49:02;;;;;;;;;8.25;8.25;;;;;15.32;71.48;99120.69;5072872;28;45360;-71
2023/08/31 05:51:27;;;;;;;;;15.00;12.50;;;;;15.36;71.42;99122.22;5073418;28;45813;-70
2023/08/31 05:53:52;;;;;;;;;12.50;12.50;;;;;15.38;71.70;99119.50;5075826;28;45420;-71
2023/08/31 05:56:19;;;;;;;;;18.00;15.75;;;;;15.42;71.47;99127.16;5076567;28;45326;-71
2023/08/31 05:58:45;;;;;;;;;11.00;11.00;;;;;15.45;71.46;99126.13;5075985;28;45401;-70
2023/08/31 06:01:10;;;;;;;;;17.50;16.50;;;;;15.48;71.36;99129.47;5076669;28;45475;-70
2023/08/31 06:03:36;;;;;;;;;16.25;14.00;;;;;15.51;71.07;99131.94;5076723;28;45408;-70
2023/08/31 06:06:01;;;;;;;;;17.00;16.00;;;;;15.56;71.25;99137.03;5076641;28;45411;-70
2023/08/31 06:08:27;;;;;;;;;13.25;13.25;;;;;15.59;71.09;99142.97;5076838;28;45373;-70
2023/08/31 06:10:52;;;;;;;;;13.75;13.50;;;;;15.62;71.21;99129.50;5076631;28;46410;-70
2023/08/31 06:13:18;;;;;;;;;18.25;16.00;;;;;15.66;70.71;99132.84;5075557;28;45385;-69
2023/08/31 06:15:46;;;;;;;;;19.75;18.75;;;;;15.69;70.77;99135.31;5076288;28;45578;-69
2023/08/31 06:18:12;;;;;;;;;14.50;13.75;;;;;15.70;70.77;99143.22;5076682;27;45438;-69
2023/08/31 06:20:37;;;;;;;;;13.75;12.75;;;;;15.75;70.51;99148.25;5076355;28;45368;-69
2023/08/31 06:23:03;;;;;;;;;13.75;11.25;;;;;15.81;70.55;99136.38;5076211;28;45359;-69
2023/08/31 06:25:28;;;;;;;;;14.75;14.50;;;;;15.86;70.83;99132.50;5075357;28;45363;-69
2023/08/31 06:27:54;;;;;;;;;15.75;14.00;;;;;15.89;70.53;99132.31;5074616;28;45366;-69
2023/08/31 06:30:19;;;;;;;;;14.25;13.25;;;;;15.91;69.85;99133.06;5074419;28;45597;-69
2023/08/31 06:32:46;;;;;;;;;14.75;14.00;;;;;15.96;70.19;99138.09;5075352;28;45370;-69
2023/08/31 06:35:12;;;;;;;;;13.25;13.25;;;;;15.96;69.71;99141.59;5075249;28;45473;-69
2023/08/31 06:37:39;;;;;;;;;15.50;14.00;;;;;15.98;69.72;99136.19;5074228;28;45361;-69
2023/08/31 06:40:06;;;;;;;;;16.25;12.75;;;;;15.98;69.30;99131.72;5075002;28;46544;-69
2023/08/31 06:42:31;;;;;;;;;14.25;14.25;;;;;15.96;69.43;99138.94;5073989;28;45396;-69
2023/08/31 06:44:57;;;;;;;;;11.25;11.25;;;;;15.91;69.79;99140.19;5074583;28;45492;-69
2023/08/31 06:47:23;;;;;;;;;14.25;13.75;;;;;15.91;69.67;99145.50;5074667;28;45525;-69
2023/08/31 06:49:49;;;;;;;;;17.00;13.50;;;;;15.93;69.88;99151.56;5074558;28;46643;-69
2023/08/31 06:52:15;;;;;;;;;17.50;15.50;;;;;15.97;69.51;99148.63;5074913;28;45439;-69
2023/08/31 06:54:41;;;;;;;;;15.25;13.25;;;;;16.00;69.89;99147.59;5074879;28;45480;-69
2023/08/31 06:57:07;;;;;;;;;21.25;19.25;;;;;16.05;69.65;99149.03;5074492;28;45607;-69
2023/08/31 06:59:32;;;;;;;;;15.00;15.00;;;;;16.14;69.69;99144.06;5073992;28;46051;-69
2023/08/31 07:01:57;;;;;;;;;17.50;17.50;;;;;16.22;69.41;99149.78;5074863;28;45501;-69
2023/08/31 07:04:23;;;;;;;;;18.00;18.00;;;;;16.30;69.24;99153.66;5073893;28;45484;-68
2023/08/31 07:06:48;;;;;;;;;19.75;18.25;;;;;16.38;69.52;99151.38;5074705;28;45345;-69
2023/08/31 07:09:13;;;;;;;;;21.25;18.75;;;;;16.47;69.03;99149.94;5074475;28;45465;-69
2023/08/31 07:11:39;;;;;;;;;14.75;14.75;;;;;16.54;68.96;99153.06;5074610;28;45414;-69
2023/08/31 07:14:04;;;;;;;;;16.75;15.50;;;;;16.58;69.13;99154.59;5074099;27;45372;-69
2023/08/31 07:16:30;;;;;;;;;18.25;14.75;;;;;16.65;68.88;99161.25;5074375;28;45312;-69
2023/08/31 07:18:55;;;;;;;;;16.00;15.75;;;;;16.70;69.02;99159.16;5074327;28;46137;-69
2023/08/31 07:21:20;;;;;;;;;11.00;11.00;;;;;16.77;68.54;99146.28;5072223;28;45342;-69
2023/08/31 07:23:46;;;;;;;;;15.75;15.75;;;;;16.83;68.40;99140.56;5089474;27;45368;-69
2023/08/31 07:26:11;;;;;;;;;10.00;7.00;;;;;16.90;68.50;99142.75;5074517;28;45336;-69
2023/08/31 07:28:37;;;;;;;;;16.25;16.00;;;;;16.97;68.34;99151.16;5073685;28;46087;-69
2023/08/31 07:31:06;;;;;;;;;18.25;17.50;;;;;17.02;68.06;99160.56;5074463;28;45489;-69
2023/08/31 07:33:32;;;;;;;;;18.50;18.25;;;;;17.08;67.79;99156.66;5074181;28;45481;-69
2023/08/31 07:36:02;;;;;;;;;16.00;15.50;;;;;17.15;67.85;99143.75;5073624;28;45376;-69
2023/08/31 07:38:27;;;;;;;;;19.75;15.00;;;;;17.20;67.40;99139.84;5073605;28;45475;-69
2023/08/31 07:40:53;;;;;;;;;18.25;17.00;;;;;17.27;66.88;99137.59;5073245;28;45477;-69
2023/08/31 07:43:19;;;;;;;;;22.25;18.00;;;;;17.34;66.98;99152.25;5073128;28;45391;-69
2023/08/31 07:45:44;;;;;;;;;15.00;13.25;;;;;17.38;66.48;99148.41;5073104;28;45331;-69
2023/08/31 07:48:10;;;;;;;;;12.00;12.00;;;;;17.41;66.38;99162.41;5073338;28;46329;-69
2023/08/31 07:50:35;;;;;;;;;16.50;13.75;;;;;17.45;66.14;99160.34;5073956;28;45443;-69
2023/08/31 07:53:00;;;;;;;;;16.25;16.25;;;;;17.51;66.10;99162.63;5073596;28;45705;-69
2023/08/31 07:55:26;;;;;;;;;15.00;12.00;;;;;17.56;64.82;99173.84;5073460;28;45444;-69
2023/08/31 07:57:51;;;;;;;;;12.75;12.75;;;;;17.57;64.64;99170.22;5073976;28;45517;-69
2023/08/31 08:00:18;;;;;;;;;14.25;13.50;;;;;17.58;64.56;99173.72;5073796;28;45429;-69
2023/08/31 08:02:45;;;;;;;;;13.50;12.00;;;;;17.59;64.50;99173.63;5074176;28;45475;-69
2023/08/31 08:05:10;;;;;;;;;14.50;11.50;;;;;17.61;64.42;99165.50;5074065;28;45613;-69
2023/08/31 08:07:36;;;;;;;;;12.75;12.75;;;;;17.65;64.23;99162.56;5073704;28;45446;-69
2023/08/31 08:10:02;;;;;;;;;12.25;12.25;;;;;17.70;64.43;99163.09;5072929;28;45510;-69
2023/08/31 08:12:36;;;;;;;;;14.25;9.75;;;;;17.75;64.37;99168.13;5089516;27;45413;-69
2023/08/31 08:15:02;;;;;;;;;10.75;9.75;;;;;17.84;64.08;99172.81;5073418;28;45368;-69
2023/08/31 08:17:27;;;;;;;;;14.75;13.50;;;;;17.93;63.85;99174.03;5073528;28;45769;-69
2023/08/31 08:19:52;;;;;;;;;13.75;12.00;;;;;17.98;63.37;99175.38;5073748;28;45301;-69
2023/08/31 08:22:18;;;;;;;;;13.25;11.50;;;;;18.03;63.66;99164.41;5073595;28;45324;-69
2023/08/31 08:24:43;;;;;;;;;13.25;12.00;;;;;18.10;63.83;99160.31;5073489;28;45371;-69
2023/08/31 08:27:08;;;;;;;;;15.50;13.00;;;;;18.19;63.88;99167.69;5073750;28;45512;-69
2023/08/31 08:29:34;;;;;;;;;15.25;13.00;;;;;18.28;63.67;99164.38;5073086;28;45353;-69
2023/08/31 08:31:59;;;;;;;;;12.50;10.00;;;;;18.38;63.33;99160.09;5072780;28;45399;-69
2023/08/31 08:34:26;;;;;;;;;14.25;13.00;;;;;18.48;62.69;99160.28;5071478;28;45588;-69
2023/08/31 08:36:52;;;;;;;;;13.00;12.00;;;;;18.57;62.44;99161.44;5072722;28;45435;-69
2023/08/31 08:39:17;;;;;;;;;12.25;10.25;;;;;18.60;62.18;99162.09;5073017;28;45498;-69
2023/08/31 08:41:44;;;;;;;;;14.00;11.25;;;;;18.66;62.43;99166.16;5073399;28;45513;-68
2023/08/31 08:44:10;;;;;;;;;11.25;10.00;;;;;18.74;62.22;99175.31;5072623;28;45598;-68
2023/08/31 08:46:37;;;;;;;;;11.75;10.00;;;;;18.81;62.01;99171.22;5072939;28;46361;-74
2023/08/31 08:49:05;;;;;;;;;25.50;23.75;;;;;18.91;61.80;99167.91;5073101;28;45432;-66
2023/08/31 08:51:31;;;;;;;;;14.25;10.50;;;;;19.02;60.77;99173.28;5073115;28;45468;-65
2023/08/31 08:53:59;;;;;;;;;10.00;8.00;;;;;19.08;59.90;99168.38;5071719;28;45602;-66
2023/08/31 08:56:24;;;;;;;;;9.40;8.20;;;;;19.15;59.78;99161.56;5068053;28;45587;-67
2023/08/31 08:58:50;;;;;;;;;11.25;11.25;;;;;19.23;59.91;99162.84;5072762;28;45305;-67
2023/08/31 09:01:17;;;;;;;;;9.50;9.00;;;;;19.28;60.26;99166.00;5073385;27;45379;-67
2023/08/31 09:03:43;;;;;;;;;10.00;9.00;;;;;19.35;60.29;99176.13;5073310;27;45515;-66
2023/08/31 09:06:10;;;;;;;;;8.75;7.75;;;;;19.40;60.15;99173.97;5071340;28;45690;-67
2023/08/31 09:08:37;;;;;;;;;11.40;10.00;;;;;19.47;60.32;99175.19;5072546;28;45412;-67
2023/08/31 09:11:02;;;;;;;;;9.00;9.00;;;;;19.54;59.72;99174.78;5072541;28;45478;-66
2023/08/31 09:13:29;;;;;;;;;11.00;11.00;;;;;19.58;59.97;99171.75;5071997;28;45390;-67
2023/08/31 09:15:54;;;;;;;;;8.75;7.00;;;;;19.66;59.81;99166.66;5087892;27;48718;-66
2023/08/31 09:18:35;;;;;;;;;7.00;6.25;;;;;19.75;59.79;99160.63;5072620;28;45392;-66
2023/08/31 09:21:01;;;;;;;;;7.80;7.60;;;;;19.82;59.46;99160.97;5071113;28;45431;-67
2023/08/31 09:23:27;;;;;;;;;8.00;6.75;;;;;19.86;59.74;99163.31;5072558;28;45606;-66
2023/08/31 09:25:54;;;;;;;;;9.75;8.25;;;;;19.92;59.44;99167.34;5088044;27;46717;-67
2023/08/31 09:28:21;;;;;;;;;7.40;7.40;;;;;19.97;59.62;99159.78;5074246;28;45384;-66
2023/08/31 09:30:48;;;;;;;;;6.80;5.00;;;;;20.06;59.70;99166.25;5076311;28;45499;-67
2023/08/31 09:33:18;;;;;;;;;7.60;5.80;;;;;20.15;60.08;99160.16;5076108;28;45374;-67
2023/08/31 09:35:51;;;;;;;;;5.40;5.40;;;;;20.26;59.53;99168.22;5075864;28;46206;-67
2023/08/31 09:38:18;;;;;;;;;8.20;7.00;;;;;20.38;59.85;99166.44;5075749;28;45482;-67
2023/08/31 09:40:43;;;;;;;;;6.00;5.80;;;;;20.48;59.23;99165.56;5073959;28;45405;-68
2023/08/31 09:43:08;;;;;;;;;7.00;7.00;;;;;20.59;59.27;99159.38;5075526;28;45476;-67
2023/08/31 09:45:35;;;;;;;;;7.00;6.25;;;;;20.70;58.92;99162.00;5075874;28;45952;-67
2023/08/31 09:48:02;;;;;;;;;6.00;6.00;;;;;20.80;58.35;99167.47;5075651;28;45567;-66
2023/08/31 09:50:34;;;;;;;;;7.40;6.40;;;;;20.86;57.69;99157.09;5075671;27;45449;-67
2023/08/31 09:53:04;;;;;;;;;5.00;5.00;;;;;20.96;56.92;99165.22;5096018;27;45509;-67
2023/08/31 09:55:32;;;;;;;;;8.00;5.60;;;;;21.03;56.79;99163.75;5096063;27;46335;-67
2023/08/31 09:58:00;;;;;;;;;7.20;5.80;;;;;21.10;56.56;99158.75;5095970;27;45489;-67
2023/08/31 10:00:32;;;;;;;;;6.00;6.00;;;;;21.21;55.97;99164.09;5096166;27;45402;-67
2023/08/31 10:03:00;;;;;;;;;5.60;5.00;;;;;21.33;55.61;99156.88;5095990;27;45471;-67
2023/08/31 10:05:26;;;;;;;;;7.00;6.40;;;;;21.40;54.94;99148.19;5094704;27;46735;-67
2023/08/31 10:07:52;;;;;;;;;5.50;4.00;;;;;21.46;55.12;99152.16;5075326;28;45409;-67
2023/08/31 10:10:18;;;;;;;;;5.00;5.00;;;;;21.49;54.32;99139.34;5074245;28;45436;-67
2023/08/31 10:12:49;;;;;;;;;4.00;4.00;;;;;21.54;54.90;99133.59;5075990;28;45352;-67
2023/08/31 10:15:16;;;;;;;;;6.80;6.20;;;;;21.58;54.09;99130.53;5074726;28;45545;-68
2023/08/31 10:17:42;;;;;;;;;6.00;6.00;;;;;21.70;54.49;99136.69;5075063;28;45463;-67
2023/08/31 10:20:11;;;;;;;;;4.80;4.40;;;;;21.82;53.94;99134.75;5075069;28;45444;-67
2023/08/31 10:22:37;;;;;;;;;6.00;5.00;;;;;21.92;53.26;99133.00;5073722;28;45547;-68
2023/08/31 10:25:05;;;;;;;;;6.80;6.80;;;;;21.98;52.54;99131.59;5090310;27;45776;-67
2023/08/31 10:27:50;;;;;;;;;7.00;7.00;;;;;21.95;51.89;99130.06;5075063;28;45424;-68
2023/08/31 10:30:21;;;;;;;;;4.60;4.60;;;;;21.93;52.09;99127.50;5075291;28;45395;-67
2023/08/31 10:33:07;;;;;;;;;4.20;4.20;;;;;21.98;52.32;99126.22;5074896;28;45481;-67
2023/08/31 10:35:47;;;;;;;;;6.00;5.00;;;;;22.00;52.47;99119.78;5074152;28;46257;-67
2023/08/31 10:38:26;;;;;;;;;3.20;3.00;;;;;22.03;51.30;99116.00;5075076;28;45429;-67
2023/08/31 10:41:15;;;;;;;;;5.40;5.40;;;;;22.05;50.78;99122.06;5074212;28;45488;-67
2023/08/31 10:43:53;;;;;;;;;7.00;7.00;;;;;22.08;51.38;99116.44;5068691;27;45617;-67
2023/08/31 10:46:28;;;;;;;;;4.40;4.40;;;;;22.12;51.49;99109.81;5073668;28;48134;-67
2023/08/31 10:48:58;;;;;;;;;6.20;5.40;;;;;22.21;51.85;99112.53;5074466;28;45316;-67
2023/08/31 10:51:28;;;;;;;;;5.00;5.00;;;;;22.27;51.68;99112.00;5073696;28;45404;-67
2023/08/31 10:54:09;;;;;;;;;5.00;4.00;;;;;22.35;50.84;99108.63;5074799;27;45530;-68
2023/08/31 10:57:08;;;;;;;;;5.40;5.20;;;;;22.46;50.21;99107.66;5074759;28;45662;-68
2023/08/31 10:59:43;;;;;;;;;5.00;4.00;;;;;22.56;51.15;99106.72;5069550;27;45401;-67
2023/08/31 11:02:09;;;;;;;;;4.20;4.00;;;;;22.64;51.09;99106.88;5075190;28;45358;-68
2023/08/31 11:05:00;;;;;;;;;3.25;3.25;;;;;22.73;50.83;99104.34;5075436;28;45353;-66
2023/08/31 11:07:28;;;;;;;;;3.80;2.60;;;;;22.79;49.04;99106.53;5074529;28;45488;-66
2023/08/31 11:10:26;;;;;;;;;6.60;3.00;;;;;22.76;49.15;99104.09;5074688;28;45360;-66
2023/08/31 11:12:54;;;;;;;;;3.60;3.60;;;;;22.75;50.16;99097.84;5074126;28;45530;-66
2023/08/31 11:15:23;;;;;;;;;6.00;3.80;;;;;22.75;49.31;99086.25;5074735;28;45507;-67
2023/08/31 11:17:53;;;;;;;;;3.60;3.60;;;;;22.74;48.44;99103.38;5074437;28;45868;-67
2023/08/31 11:20:21;;;;;;;;;4.00;3.00;;;;;22.71;49.37;99087.50;5074816;28;45498;-68
2023/08/31 11:22:55;;;;;;;;;6.00;5.00;;;;;22.71;49.83;99082.13;5074533;28;45392;-67
2023/08/31 11:25:23;;;;;;;;;5.60;5.60;;;;;22.78;50.14;99088.69;5074904;28;45358;-67
2023/08/31 11:27:59;;;;;;;;;3.80;3.80;;;;;22.81;49.16;99085.72;5074285;28;45551;-67